sensor_id;sensor_type;location;lat;lon;timestamp;temperature;humidity
73121;DHT22;61307;49.628;-1.624;2023-05-17T00:00:55;17.40;49.20
73121;DHT22;61307;49.628;-1.624;2023-05-17T00:03:22;17.40;49.20
73121;DHT22;61307;49.628;-1.624;2023-05-17T00:05:51;17.40;49.30
73121;DHT22;61307;49.628;-1.624;2023-05-17T00:08:18;17.40;49.30
73121;DHT22;61307;49.628;-1.624;2023-05-17T00:10:46;17.40;49.30
73121;DHT22;61307;49.628;-1.624;2023-05-17T00:13:13;17.40;49.30
73121;DHT22;61307;49.628;-1.624;2023-05-17T00:15:40;17.40;49.40
73121;DHT22;61307;49.628;-1.624;2023-05-17T00:18:07;17.40;49.40
73121;DHT22;61307;49.628;-1.624;2023-05-17T00:20:34;17.40;49.40
73121;DHT22;61307;49.628;-1.624;2023-05-17T00:23:03;17.40;49.40
73121;DHT22;61307;49.628;-1.624;2023-05-17T00:25:30;17.40;49.40
73121;DHT22;61307;49.628;-1.624;2023-05-17T00:27:57;17.40;49.40
73121;DHT22;61307;49.628;-1.624;2023-05-17T00:30:24;17.40;49.50
73121;DHT22;61307;49.628;-1.624;2023-05-17T00:32:51;17.40;49.50
73121;DHT22;61307;49.628;-1.624;2023-05-17T00:35:18;17.40;49.60
73121;DHT22;61307;49.628;-1.624;2023-05-17T00:37:45;17.40;49.60
73121;DHT22;61307;49.628;-1.624;2023-05-17T00:40:15;17.40;49.60
73121;DHT22;61307;49.628;-1.624;2023-05-17T00:42:42;17.40;49.60
73121;DHT22;61307;49.628;-1.624;2023-05-17T00:45:10;17.30;49.60
73121;DHT22;61307;49.628;-1.624;2023-05-17T00:47:37;17.30;49.60
73121;DHT22;61307;49.628;-1.624;2023-05-17T00:50:05;17.40;49.70
73121;DHT22;61307;49.628;-1.624;2023-05-17T00:52:32;17.30;49.60
73121;DHT22;61307;49.628;-1.624;2023-05-17T00:54:59;17.30;49.60
73121;DHT22;61307;49.628;-1.624;2023-05-17T00:57:28;17.30;49.60
73121;DHT22;61307;49.628;-1.624;2023-05-17T00:59:56;17.40;49.70
73121;DHT22;61307;49.628;-1.624;2023-05-17T01:02:23;17.40;49.70
73121;DHT22;61307;49.628;-1.624;2023-05-17T01:04:50;17.30;49.70
73121;DHT22;61307;49.628;-1.624;2023-05-17T01:07:18;17.30;49.70
73121;DHT22;61307;49.628;-1.624;2023-05-17T01:09:45;17.30;49.70
73121;DHT22;61307;49.628;-1.624;2023-05-17T01:12:21;17.30;49.70
73121;DHT22;61307;49.628;-1.624;2023-05-17T01:14:57;17.30;49.70
73121;DHT22;61307;49.628;-1.624;2023-05-17T01:17:34;17.30;49.80
73121;DHT22;61307;49.628;-1.624;2023-05-17T01:20:12;17.30;49.80
73121;DHT22;61307;49.628;-1.624;2023-05-17T01:22:45;17.30;49.80
73121;DHT22;61307;49.628;-1.624;2023-05-17T01:25:27;17.30;49.80
73121;DHT22;61307;49.628;-1.624;2023-05-17T01:27:58;17.30;49.80
73121;DHT22;61307;49.628;-1.624;2023-05-17T01:30:28;17.30;49.80
73121;DHT22;61307;49.628;-1.624;2023-05-17T01:32:56;17.30;49.90
73121;DHT22;61307;49.628;-1.624;2023-05-17T01:35:24;17.30;49.90
73121;DHT22;61307;49.628;-1.624;2023-05-17T01:37:52;17.30;49.90
73121;DHT22;61307;49.628;-1.624;2023-05-17T01:40:19;17.30;49.90
73121;DHT22;61307;49.628;-1.624;2023-05-17T01:42:50;17.30;49.90
73121;DHT22;61307;49.628;-1.624;2023-05-17T01:45:23;17.30;49.90
73121;DHT22;61307;49.628;-1.624;2023-05-17T01:48:02;17.30;50.60
73121;DHT22;61307;49.628;-1.624;2023-05-17T01:50:35;17.30;50.00
73121;DHT22;61307;49.628;-1.624;2023-05-17T01:53:08;17.30;50.00
73121;DHT22;61307;49.628;-1.624;2023-05-17T01:55:43;17.30;50.00
73121;DHT22;61307;49.628;-1.624;2023-05-17T01:58:13;17.20;50.00
73121;DHT22;61307;49.628;-1.624;2023-05-17T02:00:45;17.30;50.00
73121;DHT22;61307;49.628;-1.624;2023-05-17T02:03:16;17.30;50.00
73121;DHT22;61307;49.628;-1.624;2023-05-17T02:05:44;17.20;50.00
73121;DHT22;61307;49.628;-1.624;2023-05-17T02:08:11;17.30;50.00
73121;DHT22;61307;49.628;-1.624;2023-05-17T02:10:38;17.20;50.00
73121;DHT22;61307;49.628;-1.624;2023-05-17T02:13:05;17.30;50.10
73121;DHT22;61307;49.628;-1.624;2023-05-17T02:15:32;17.20;50.00
73121;DHT22;61307;49.628;-1.624;2023-05-17T02:18:01;17.20;50.00
73121;DHT22;61307;49.628;-1.624;2023-05-17T02:20:28;17.20;50.00
73121;DHT22;61307;49.628;-1.624;2023-05-17T02:22:56;17.20;50.00
73121;DHT22;61307;49.628;-1.624;2023-05-17T02:25:22;17.20;50.10
73121;DHT22;61307;49.628;-1.624;2023-05-17T02:27:50;17.20;50.10
73121;DHT22;61307;49.628;-1.624;2023-05-17T02:30:17;17.20;50.10
73121;DHT22;61307;49.628;-1.624;2023-05-17T02:32:46;17.20;50.10
73121;DHT22;61307;49.628;-1.624;2023-05-17T02:35:15;17.20;50.10
73121;DHT22;61307;49.628;-1.624;2023-05-17T02:37:42;17.20;50.10
73121;DHT22;61307;49.628;-1.624;2023-05-17T02:40:10;17.20;50.10
73121;DHT22;61307;49.628;-1.624;2023-05-17T02:42:37;17.20;50.10
73121;DHT22;61307;49.628;-1.624;2023-05-17T02:45:04;17.20;50.20
73121;DHT22;61307;49.628;-1.624;2023-05-17T02:47:31;17.20;50.20
73121;DHT22;61307;49.628;-1.624;2023-05-17T02:49:58;17.20;50.10
73121;DHT22;61307;49.628;-1.624;2023-05-17T02:52:27;17.20;50.20
73121;DHT22;61307;49.628;-1.624;2023-05-17T02:54:54;17.20;50.20
73121;DHT22;61307;49.628;-1.624;2023-05-17T02:57:21;17.20;50.20
73121;DHT22;61307;49.628;-1.624;2023-05-17T02:59:49;17.20;50.20
73121;DHT22;61307;49.628;-1.624;2023-05-17T03:02:16;17.20;50.20
73121;DHT22;61307;49.628;-1.624;2023-05-17T03:04:43;17.20;50.20
73121;DHT22;61307;49.628;-1.624;2023-05-17T03:07:10;17.20;50.20
73121;DHT22;61307;49.628;-1.624;2023-05-17T03:09:39;17.20;50.20
73121;DHT22;61307;49.628;-1.624;2023-05-17T03:12:07;17.20;50.30
73121;DHT22;61307;49.628;-1.624;2023-05-17T03:14:35;17.20;50.30
73121;DHT22;61307;49.628;-1.624;2023-05-17T03:17:02;17.20;50.30
73121;DHT22;61307;49.628;-1.624;2023-05-17T03:19:29;17.20;50.30
73121;DHT22;61307;49.628;-1.624;2023-05-17T03:21:56;17.20;50.30
73121;DHT22;61307;49.628;-1.624;2023-05-17T03:24:23;17.20;50.40
73121;DHT22;61307;49.628;-1.624;2023-05-17T03:26:51;17.20;50.40
73121;DHT22;61307;49.628;-1.624;2023-05-17T03:29:18;17.20;50.40
73121;DHT22;61307;49.628;-1.624;2023-05-17T03:31:45;17.10;50.40
73121;DHT22;61307;49.628;-1.624;2023-05-17T03:34:13;17.10;50.40
73121;DHT22;61307;49.628;-1.624;2023-05-17T03:36:40;17.20;50.50
73121;DHT22;61307;49.628;-1.624;2023-05-17T03:39:07;17.20;50.50
73121;DHT22;61307;49.628;-1.624;2023-05-17T03:41:34;17.20;50.50
73121;DHT22;61307;49.628;-1.624;2023-05-17T03:44:02;17.10;50.50
73121;DHT22;61307;49.628;-1.624;2023-05-17T03:46:30;17.20;50.60
73121;DHT22;61307;49.628;-1.624;2023-05-17T03:48:57;17.10;50.50
73121;DHT22;61307;49.628;-1.624;2023-05-17T03:51:24;17.10;50.60
73121;DHT22;61307;49.628;-1.624;2023-05-17T03:53:56;17.10;50.60
73121;DHT22;61307;49.628;-1.624;2023-05-17T03:56:24;17.10;50.60
73121;DHT22;61307;49.628;-1.624;2023-05-17T03:58:50;17.10;50.60
73121;DHT22;61307;49.628;-1.624;2023-05-17T04:01:19;17.10;50.60
73121;DHT22;61307;49.628;-1.624;2023-05-17T04:03:46;17.10;50.60
73121;DHT22;61307;49.628;-1.624;2023-05-17T04:06:13;17.10;50.60
73121;DHT22;61307;49.628;-1.624;2023-05-17T04:08:41;17.10;50.70
73121;DHT22;61307;49.628;-1.624;2023-05-17T04:11:08;17.10;50.70
73121;DHT22;61307;49.628;-1.624;2023-05-17T04:13:38;17.10;50.70
73121;DHT22;61307;49.628;-1.624;2023-05-17T04:16:06;17.10;50.70
73121;DHT22;61307;49.628;-1.624;2023-05-17T04:18:36;17.10;50.80
73121;DHT22;61307;49.628;-1.624;2023-05-17T04:21:04;17.10;50.80
73121;DHT22;61307;49.628;-1.624;2023-05-17T04:23:32;17.10;50.80
73121;DHT22;61307;49.628;-1.624;2023-05-17T04:25:59;17.10;50.80
73121;DHT22;61307;49.628;-1.624;2023-05-17T04:28:26;17.10;50.80
73121;DHT22;61307;49.628;-1.624;2023-05-17T04:30:54;17.10;50.80
73121;DHT22;61307;49.628;-1.624;2023-05-17T04:33:21;17.10;50.90
73121;DHT22;61307;49.628;-1.624;2023-05-17T04:35:53;17.10;50.90
73121;DHT22;61307;49.628;-1.624;2023-05-17T04:38:21;17.10;50.90
73121;DHT22;61307;49.628;-1.624;2023-05-17T04:40:48;17.10;50.90
73121;DHT22;61307;49.628;-1.624;2023-05-17T04:43:16;17.10;50.90
73121;DHT22;61307;49.628;-1.624;2023-05-17T04:45:43;17.10;50.90
73121;DHT22;61307;49.628;-1.624;2023-05-17T04:48:10;17.10;50.90
73121;DHT22;61307;49.628;-1.624;2023-05-17T04:50:37;17.10;50.90
73121;DHT22;61307;49.628;-1.624;2023-05-17T04:53:06;17.10;51.00
73121;DHT22;61307;49.628;-1.624;2023-05-17T04:55:33;17.10;51.00
73121;DHT22;61307;49.628;-1.624;2023-05-17T04:58:00;17.10;51.00
73121;DHT22;61307;49.628;-1.624;2023-05-17T05:00:28;17.10;51.00
73121;DHT22;61307;49.628;-1.624;2023-05-17T05:02:55;17.10;51.10
73121;DHT22;61307;49.628;-1.624;2023-05-17T05:05:22;17.10;51.10
73121;DHT22;61307;49.628;-1.624;2023-05-17T05:07:50;17.10;51.10
73121;DHT22;61307;49.628;-1.624;2023-05-17T05:10:20;17.10;51.10
73121;DHT22;61307;49.628;-1.624;2023-05-17T05:12:47;17.10;51.10
73121;DHT22;61307;49.628;-1.624;2023-05-17T05:15:14;17.10;51.20
73121;DHT22;61307;49.628;-1.624;2023-05-17T05:17:41;17.10;51.20
73121;DHT22;61307;49.628;-1.624;2023-05-17T05:20:09;17.10;51.20
73121;DHT22;61307;49.628;-1.624;2023-05-17T05:22:36;17.10;51.30
73121;DHT22;61307;49.628;-1.624;2023-05-17T05:25:04;17.10;51.30
73121;DHT22;61307;49.628;-1.624;2023-05-17T05:27:32;17.10;51.30
73121;DHT22;61307;49.628;-1.624;2023-05-17T05:30:01;17.10;51.30
73121;DHT22;61307;49.628;-1.624;2023-05-17T05:32:28;17.10;51.40
73121;DHT22;61307;49.628;-1.624;2023-05-17T05:34:55;17.10;51.40
73121;DHT22;61307;49.628;-1.624;2023-05-17T05:37:23;17.10;51.40
73121;DHT22;61307;49.628;-1.624;2023-05-17T05:39:50;17.10;51.40
73121;DHT22;61307;49.628;-1.624;2023-05-17T05:42:17;17.10;51.50
73121;DHT22;61307;49.628;-1.624;2023-05-17T05:44:45;17.10;51.50
73121;DHT22;61307;49.628;-1.624;2023-05-17T05:47:13;17.10;51.50
73121;DHT22;61307;49.628;-1.624;2023-05-17T05:49:40;17.10;51.50
73121;DHT22;61307;49.628;-1.624;2023-05-17T05:52:07;17.10;51.50
73121;DHT22;61307;49.628;-1.624;2023-05-17T05:54:34;17.10;51.50
73121;DHT22;61307;49.628;-1.624;2023-05-17T05:57:01;17.10;51.60
73121;DHT22;61307;49.628;-1.624;2023-05-17T05:59:28;17.10;51.60
73121;DHT22;61307;49.628;-1.624;2023-05-17T06:01:56;17.20;51.70
73121;DHT22;61307;49.628;-1.624;2023-05-17T06:04:23;17.20;51.70
73121;DHT22;61307;49.628;-1.624;2023-05-17T06:06:52;17.20;51.70
73121;DHT22;61307;49.628;-1.624;2023-05-17T06:09:19;17.20;51.70
73121;DHT22;61307;49.628;-1.624;2023-05-17T06:11:46;17.20;51.70
73121;DHT22;61307;49.628;-1.624;2023-05-17T06:14:13;17.20;51.80
73121;DHT22;61307;49.628;-1.624;2023-05-17T06:16:40;17.20;51.80
73121;DHT22;61307;49.628;-1.624;2023-05-17T06:19:08;17.20;52.40
73121;DHT22;61307;49.628;-1.624;2023-05-17T06:21:35;17.20;51.80
73121;DHT22;61307;49.628;-1.624;2023-05-17T06:24:03;17.20;51.80
73121;DHT22;61307;49.628;-1.624;2023-05-17T06:26:30;17.20;51.90
73121;DHT22;61307;49.628;-1.624;2023-05-17T06:28:57;17.20;51.90
73121;DHT22;61307;49.628;-1.624;2023-05-17T06:31:24;17.20;51.90
73121;DHT22;61307;49.628;-1.624;2023-05-17T06:33:51;17.30;52.10
73121;DHT22;61307;49.628;-1.624;2023-05-17T06:36:20;17.30;52.10
73121;DHT22;61307;49.628;-1.624;2023-05-17T06:38:47;17.20;52.60
73121;DHT22;61307;49.628;-1.624;2023-05-17T06:41:14;17.30;52.10
73121;DHT22;61307;49.628;-1.624;2023-05-17T06:43:41;17.30;52.10
73121;DHT22;61307;49.628;-1.624;2023-05-17T06:46:08;17.30;52.10
73121;DHT22;61307;49.628;-1.624;2023-05-17T06:48:35;17.30;52.10
73121;DHT22;61307;49.628;-1.624;2023-05-17T06:51:02;17.30;52.10
73121;DHT22;61307;49.628;-1.624;2023-05-17T06:53:31;17.30;52.80
73121;DHT22;61307;49.628;-1.624;2023-05-17T06:55:58;17.30;52.10
73121;DHT22;61307;49.628;-1.624;2023-05-17T06:58:25;17.30;52.20
73121;DHT22;61307;49.628;-1.624;2023-05-17T07:00:52;17.30;52.20
73121;DHT22;61307;49.628;-1.624;2023-05-17T07:03:19;17.40;52.30
73121;DHT22;61307;49.628;-1.624;2023-05-17T07:05:46;17.40;52.40
73121;DHT22;61307;49.628;-1.624;2023-05-17T07:08:14;17.40;52.80
73121;DHT22;61307;49.628;-1.624;2023-05-17T07:10:42;17.40;52.40
73121;DHT22;61307;49.628;-1.624;2023-05-17T07:13:09;17.50;52.40
73121;DHT22;61307;49.628;-1.624;2023-05-17T07:15:36;17.60;52.40
73121;DHT22;61307;49.628;-1.624;2023-05-17T07:18:04;17.70;52.40
73121;DHT22;61307;49.628;-1.624;2023-05-17T07:20:31;17.70;52.30
73121;DHT22;61307;49.628;-1.624;2023-05-17T07:22:58;17.80;52.20
73121;DHT22;61307;49.628;-1.624;2023-05-17T07:25:25;17.90;52.20
73121;DHT22;61307;49.628;-1.624;2023-05-17T07:27:54;17.90;52.10
73121;DHT22;61307;49.628;-1.624;2023-05-17T07:30:21;18.10;52.10
73121;DHT22;61307;49.628;-1.624;2023-05-17T07:32:50;18.10;51.90
73121;DHT22;61307;49.628;-1.624;2023-05-17T07:35:23;18.20;51.90
73121;DHT22;61307;49.628;-1.624;2023-05-17T07:37:50;18.20;51.80
73121;DHT22;61307;49.628;-1.624;2023-05-17T07:40:17;18.20;51.80
73121;DHT22;61307;49.628;-1.624;2023-05-17T07:42:44;18.30;51.70
73121;DHT22;61307;49.628;-1.624;2023-05-17T07:45:13;18.40;51.70
73121;DHT22;61307;49.628;-1.624;2023-05-17T07:47:40;18.40;51.70
73121;DHT22;61307;49.628;-1.624;2023-05-17T07:50:08;18.40;51.70
73121;DHT22;61307;49.628;-1.624;2023-05-17T07:52:35;18.40;51.80
73121;DHT22;61307;49.628;-1.624;2023-05-17T07:55:02;18.40;51.80
73121;DHT22;61307;49.628;-1.624;2023-05-17T07:57:30;18.50;51.90
73121;DHT22;61307;49.628;-1.624;2023-05-17T07:59:57;18.50;51.90
73121;DHT22;61307;49.628;-1.624;2023-05-17T08:02:26;18.50;52.60
73121;DHT22;61307;49.628;-1.624;2023-05-17T08:04:53;18.60;52.00
73121;DHT22;61307;49.628;-1.624;2023-05-17T08:07:20;18.60;52.00
73121;DHT22;61307;49.628;-1.624;2023-05-17T08:09:47;18.60;52.00
73121;DHT22;61307;49.628;-1.624;2023-05-17T08:12:14;18.60;52.00
73121;DHT22;61307;49.628;-1.624;2023-05-17T08:14:41;18.60;52.10
73121;DHT22;61307;49.628;-1.624;2023-05-17T08:17:08;18.60;52.10
73121;DHT22;61307;49.628;-1.624;2023-05-17T08:19:37;18.60;52.10
73121;DHT22;61307;49.628;-1.624;2023-05-17T08:22:04;18.60;52.10
73121;DHT22;61307;49.628;-1.624;2023-05-17T08:24:32;18.60;52.10
73121;DHT22;61307;49.628;-1.624;2023-05-17T08:26:59;18.70;52.20
73121;DHT22;61307;49.628;-1.624;2023-05-17T08:29:26;18.70;52.40
73121;DHT22;61307;49.628;-1.624;2023-05-17T08:31:54;18.70;53.10
73121;DHT22;61307;49.628;-1.624;2023-05-17T08:34:21;18.70;52.60
73121;DHT22;61307;49.628;-1.624;2023-05-17T08:36:53;18.70;52.50
73121;DHT22;61307;49.628;-1.624;2023-05-17T08:39:21;18.70;52.50
73121;DHT22;61307;49.628;-1.624;2023-05-17T08:41:50;18.70;52.50
73121;DHT22;61307;49.628;-1.624;2023-05-17T08:44:18;18.70;52.60
73121;DHT22;61307;49.628;-1.624;2023-05-17T08:46:46;18.70;52.60
73121;DHT22;61307;49.628;-1.624;2023-05-17T08:49:18;18.80;53.30
73121;DHT22;61307;49.628;-1.624;2023-05-17T08:51:48;18.80;52.70
73121;DHT22;61307;49.628;-1.624;2023-05-17T08:54:18;18.70;52.50
73121;DHT22;61307;49.628;-1.624;2023-05-17T08:56:46;18.70;52.50
73121;DHT22;61307;49.628;-1.624;2023-05-17T08:59:17;18.80;52.60
73121;DHT22;61307;49.628;-1.624;2023-05-17T09:01:47;18.80;52.50
73121;DHT22;61307;49.628;-1.624;2023-05-17T09:04:15;18.80;52.50
73121;DHT22;61307;49.628;-1.624;2023-05-17T09:06:43;18.80;52.50
73121;DHT22;61307;49.628;-1.624;2023-05-17T09:09:11;18.80;52.50
73121;DHT22;61307;49.628;-1.624;2023-05-17T09:11:40;18.80;52.50
73121;DHT22;61307;49.628;-1.624;2023-05-17T09:14:07;18.80;52.50
73121;DHT22;61307;49.628;-1.624;2023-05-17T09:16:36;18.80;52.50
73121;DHT22;61307;49.628;-1.624;2023-05-17T09:19:05;18.90;52.50
73121;DHT22;61307;49.628;-1.624;2023-05-17T09:21:34;18.90;52.50
73121;DHT22;61307;49.628;-1.624;2023-05-17T09:24:01;18.90;52.40
73121;DHT22;61307;49.628;-1.624;2023-05-17T09:26:37;18.90;53.10
73121;DHT22;61307;49.628;-1.624;2023-05-17T09:29:09;18.90;52.40
73121;DHT22;61307;49.628;-1.624;2023-05-17T09:31:37;18.90;52.40
73121;DHT22;61307;49.628;-1.624;2023-05-17T09:34:04;19.00;52.50
73121;DHT22;61307;49.628;-1.624;2023-05-17T09:36:34;19.00;52.40
73121;DHT22;61307;49.628;-1.624;2023-05-17T09:39:03;18.90;52.30
73121;DHT22;61307;49.628;-1.624;2023-05-17T09:41:32;19.00;52.40
73121;DHT22;61307;49.628;-1.624;2023-05-17T09:44:00;19.00;52.40
73121;DHT22;61307;49.628;-1.624;2023-05-17T09:46:38;19.00;52.30
73121;DHT22;61307;49.628;-1.624;2023-05-17T09:49:07;19.00;52.20
73121;DHT22;61307;49.628;-1.624;2023-05-17T09:51:38;19.00;52.20
73121;DHT22;61307;49.628;-1.624;2023-05-17T09:54:05;19.00;52.20
73121;DHT22;61307;49.628;-1.624;2023-05-17T09:56:33;19.10;52.10
73121;DHT22;61307;49.628;-1.624;2023-05-17T09:59:02;19.00;52.10
73121;DHT22;61307;49.628;-1.624;2023-05-17T10:01:30;19.10;52.20
73121;DHT22;61307;49.628;-1.624;2023-05-17T10:04:00;19.10;52.30
73121;DHT22;61307;49.628;-1.624;2023-05-17T10:06:28;19.10;52.30
73121;DHT22;61307;49.628;-1.624;2023-05-17T10:08:57;19.20;52.30
73121;DHT22;61307;49.628;-1.624;2023-05-17T10:11:27;19.20;52.30
73121;DHT22;61307;49.628;-1.624;2023-05-17T10:14:04;19.20;52.10
73121;DHT22;61307;49.628;-1.624;2023-05-17T10:16:33;19.20;52.20
73121;DHT22;61307;49.628;-1.624;2023-05-17T10:19:02;19.20;52.10
73121;DHT22;61307;49.628;-1.624;2023-05-17T10:21:30;19.20;52.10
73121;DHT22;61307;49.628;-1.624;2023-05-17T10:24:00;19.20;52.10
73121;DHT22;61307;49.628;-1.624;2023-05-17T10:26:28;19.20;52.10
73121;DHT22;61307;49.628;-1.624;2023-05-17T10:28:57;19.20;52.00
73121;DHT22;61307;49.628;-1.624;2023-05-17T10:31:28;19.20;52.00
73121;DHT22;61307;49.628;-1.624;2023-05-17T10:33:58;19.30;52.10
73121;DHT22;61307;49.628;-1.624;2023-05-17T10:36:28;19.20;52.00
73121;DHT22;61307;49.628;-1.624;2023-05-17T10:38:56;19.30;52.00
73121;DHT22;61307;49.628;-1.624;2023-05-17T10:41:27;19.20;51.90
73121;DHT22;61307;49.628;-1.624;2023-05-17T10:43:56;19.30;51.90
73121;DHT22;61307;49.628;-1.624;2023-05-17T10:46:24;19.30;51.90
73121;DHT22;61307;49.628;-1.624;2023-05-17T10:48:53;19.30;51.90
73121;DHT22;61307;49.628;-1.624;2023-05-17T10:51:22;19.30;52.00
73121;DHT22;61307;49.628;-1.624;2023-05-17T10:54:11;19.30;51.90
73121;DHT22;61307;49.628;-1.624;2023-05-17T10:56:40;19.30;51.90
73121;DHT22;61307;49.628;-1.624;2023-05-17T10:59:14;19.30;51.90
73121;DHT22;61307;49.628;-1.624;2023-05-17T11:01:57;19.30;51.90
73121;DHT22;61307;49.628;-1.624;2023-05-17T11:04:26;19.30;51.70
73121;DHT22;61307;49.628;-1.624;2023-05-17T11:07:21;19.30;51.90
73121;DHT22;61307;49.628;-1.624;2023-05-17T11:09:52;19.30;51.70
73121;DHT22;61307;49.628;-1.624;2023-05-17T11:12:32;19.30;51.70
73121;DHT22;61307;49.628;-1.624;2023-05-17T11:15:04;19.30;51.70
73121;DHT22;61307;49.628;-1.624;2023-05-17T11:17:35;19.20;51.60
73121;DHT22;61307;49.628;-1.624;2023-05-17T11:20:07;19.30;51.80
73121;DHT22;61307;49.628;-1.624;2023-05-17T11:22:37;19.30;51.90
73121;DHT22;61307;49.628;-1.624;2023-05-17T11:25:09;19.30;51.80
73121;DHT22;61307;49.628;-1.624;2023-05-17T11:27:42;19.30;51.90
73121;DHT22;61307;49.628;-1.624;2023-05-17T11:30:16;19.30;51.90
73121;DHT22;61307;49.628;-1.624;2023-05-17T11:32:48;19.30;51.90
73121;DHT22;61307;49.628;-1.624;2023-05-17T11:35:16;19.30;51.90
73121;DHT22;61307;49.628;-1.624;2023-05-17T11:37:44;19.30;51.90
73121;DHT22;61307;49.628;-1.624;2023-05-17T11:40:23;19.30;52.10
73121;DHT22;61307;49.628;-1.624;2023-05-17T11:43:12;19.30;52.40
73121;DHT22;61307;49.628;-1.624;2023-05-17T11:45:44;19.30;52.50
73121;DHT22;61307;49.628;-1.624;2023-05-17T11:48:12;19.30;52.60
73121;DHT22;61307;49.628;-1.624;2023-05-17T11:50:42;19.40;52.80
73121;DHT22;61307;49.628;-1.624;2023-05-17T11:53:11;19.50;52.90
73121;DHT22;61307;49.628;-1.624;2023-05-17T11:55:41;19.50;52.90
73121;DHT22;61307;49.628;-1.624;2023-05-17T11:58:09;19.50;52.80
73121;DHT22;61307;49.628;-1.624;2023-05-17T12:00:37;19.50;52.90
73121;DHT22;61307;49.628;-1.624;2023-05-17T12:03:17;19.50;52.80
73121;DHT22;61307;49.628;-1.624;2023-05-17T12:05:49;19.50;52.80
73121;DHT22;61307;49.628;-1.624;2023-05-17T12:08:19;19.50;52.90
73121;DHT22;61307;49.628;-1.624;2023-05-17T12:10:50;19.50;52.80
73121;DHT22;61307;49.628;-1.624;2023-05-17T12:13:18;19.50;52.80
73121;DHT22;61307;49.628;-1.624;2023-05-17T12:15:54;19.50;52.90
73121;DHT22;61307;49.628;-1.624;2023-05-17T12:18:22;19.40;52.90
73121;DHT22;61307;49.628;-1.624;2023-05-17T12:20:54;19.50;53.00
73121;DHT22;61307;49.628;-1.624;2023-05-17T12:23:29;19.40;52.90
73121;DHT22;61307;49.628;-1.624;2023-05-17T12:26:17;19.40;53.20
73121;DHT22;61307;49.628;-1.624;2023-05-17T12:28:52;19.40;53.30
73121;DHT22;61307;49.628;-1.624;2023-05-17T12:31:24;19.40;53.60
73121;DHT22;61307;49.628;-1.624;2023-05-17T12:33:53;19.40;53.80
73121;DHT22;61307;49.628;-1.624;2023-05-17T12:36:21;19.50;54.00
73121;DHT22;61307;49.628;-1.624;2023-05-17T12:38:48;19.50;54.20
73121;DHT22;61307;49.628;-1.624;2023-05-17T12:41:18;19.60;54.30
73121;DHT22;61307;49.628;-1.624;2023-05-17T12:43:48;19.60;54.40
73121;DHT22;61307;49.628;-1.624;2023-05-17T12:46:16;19.60;54.70
73121;DHT22;61307;49.628;-1.624;2023-05-17T12:48:46;19.60;54.90
73121;DHT22;61307;49.628;-1.624;2023-05-17T12:51:14;19.70;55.00
73121;DHT22;61307;49.628;-1.624;2023-05-17T12:53:42;19.70;55.40
73121;DHT22;61307;49.628;-1.624;2023-05-17T12:56:14;19.70;55.00
73121;DHT22;61307;49.628;-1.624;2023-05-17T12:58:46;19.70;54.80
73121;DHT22;61307;49.628;-1.624;2023-05-17T13:01:32;19.70;54.80
73121;DHT22;61307;49.628;-1.624;2023-05-17T13:03:59;19.80;55.30
73121;DHT22;61307;49.628;-1.624;2023-05-17T13:06:27;19.80;55.00
73121;DHT22;61307;49.628;-1.624;2023-05-17T13:08:58;19.80;55.00
73121;DHT22;61307;49.628;-1.624;2023-05-17T13:11:26;19.80;55.00
73121;DHT22;61307;49.628;-1.624;2023-05-17T13:13:54;19.80;55.10
73121;DHT22;61307;49.628;-1.624;2023-05-17T13:16:28;19.80;54.80
73121;DHT22;61307;49.628;-1.624;2023-05-17T13:18:55;19.80;54.70
73121;DHT22;61307;49.628;-1.624;2023-05-17T13:21:23;19.80;54.70
73121;DHT22;61307;49.628;-1.624;2023-05-17T13:23:50;19.80;54.80
73121;DHT22;61307;49.628;-1.624;2023-05-17T13:26:20;19.80;54.70
73121;DHT22;61307;49.628;-1.624;2023-05-17T13:28:49;19.70;54.40
73121;DHT22;61307;49.628;-1.624;2023-05-17T13:31:20;19.70;54.60
73121;DHT22;61307;49.628;-1.624;2023-05-17T13:33:51;19.70;54.70
73121;DHT22;61307;49.628;-1.624;2023-05-17T13:36:19;19.70;54.70
73121;DHT22;61307;49.628;-1.624;2023-05-17T13:38:49;19.70;54.60
73121;DHT22;61307;49.628;-1.624;2023-05-17T13:41:18;19.70;54.50
73121;DHT22;61307;49.628;-1.624;2023-05-17T13:43:47;19.70;54.50
73121;DHT22;61307;49.628;-1.624;2023-05-17T13:46:15;19.70;54.70
73121;DHT22;61307;49.628;-1.624;2023-05-17T13:48:51;19.70;54.70
73121;DHT22;61307;49.628;-1.624;2023-05-17T13:51:20;19.70;54.60
73121;DHT22;61307;49.628;-1.624;2023-05-17T13:53:47;19.80;54.60
73121;DHT22;61307;49.628;-1.624;2023-05-17T13:56:15;19.70;54.40
73121;DHT22;61307;49.628;-1.624;2023-05-17T13:58:42;19.80;54.40
73121;DHT22;61307;49.628;-1.624;2023-05-17T14:01:09;19.80;54.30
73121;DHT22;61307;49.628;-1.624;2023-05-17T14:03:37;19.70;54.10
73121;DHT22;61307;49.628;-1.624;2023-05-17T14:06:07;19.80;54.00
73121;DHT22;61307;49.628;-1.624;2023-05-17T14:08:35;19.80;53.90
73121;DHT22;61307;49.628;-1.624;2023-05-17T14:11:03;19.80;53.90
73121;DHT22;61307;49.628;-1.624;2023-05-17T14:13:31;19.80;53.90
73121;DHT22;61307;49.628;-1.624;2023-05-17T14:15:58;19.80;53.70
73121;DHT22;61307;49.628;-1.624;2023-05-17T14:18:25;19.70;53.70
73121;DHT22;61307;49.628;-1.624;2023-05-17T14:20:53;19.80;53.70
73121;DHT22;61307;49.628;-1.624;2023-05-17T14:23:21;19.80;53.70
73121;DHT22;61307;49.628;-1.624;2023-05-17T14:25:49;19.80;53.70
73121;DHT22;61307;49.628;-1.624;2023-05-17T14:28:16;19.80;53.50
73121;DHT22;61307;49.628;-1.624;2023-05-17T14:30:44;19.80;53.50
73121;DHT22;61307;49.628;-1.624;2023-05-17T14:33:11;19.80;53.40
73121;DHT22;61307;49.628;-1.624;2023-05-17T14:35:38;19.80;54.00
73121;DHT22;61307;49.628;-1.624;2023-05-17T14:38:05;19.80;53.30
73121;DHT22;61307;49.628;-1.624;2023-05-17T14:40:34;19.80;53.20
73121;DHT22;61307;49.628;-1.624;2023-05-17T14:43:01;19.80;53.20
73121;DHT22;61307;49.628;-1.624;2023-05-17T14:45:29;19.80;53.10
73121;DHT22;61307;49.628;-1.624;2023-05-17T14:47:56;19.90;53.20
73121;DHT22;61307;49.628;-1.624;2023-05-17T14:50:23;19.80;53.10
73121;DHT22;61307;49.628;-1.624;2023-05-17T14:52:51;19.80;53.20
73121;DHT22;61307;49.628;-1.624;2023-05-17T14:55:18;19.80;53.10
73121;DHT22;61307;49.628;-1.624;2023-05-17T14:57:48;19.90;53.20
73121;DHT22;61307;49.628;-1.624;2023-05-17T15:00:18;19.90;53.10
73121;DHT22;61307;49.628;-1.624;2023-05-17T15:02:46;19.90;53.20
73121;DHT22;61307;49.628;-1.624;2023-05-17T15:05:14;19.90;53.10
73121;DHT22;61307;49.628;-1.624;2023-05-17T15:07:43;19.90;53.10
73121;DHT22;61307;49.628;-1.624;2023-05-17T15:10:11;20.00;53.10
73121;DHT22;61307;49.628;-1.624;2023-05-17T15:12:38;19.90;52.90
73121;DHT22;61307;49.628;-1.624;2023-05-17T15:15:08;20.00;52.90
73121;DHT22;61307;49.628;-1.624;2023-05-17T15:17:35;20.00;52.80
73121;DHT22;61307;49.628;-1.624;2023-05-17T15:20:03;20.00;52.70
73121;DHT22;61307;49.628;-1.624;2023-05-17T15:22:31;20.00;52.80
73121;DHT22;61307;49.628;-1.624;2023-05-17T15:24:58;20.00;52.70